Date,TemperatureHighF,TemperatureAvgF,TemperatureLowF,DewpointHighF,DewpointAvgF,DewpointLowF,HumidityHigh,HumidityAvg,HumidityLow,PressureMaxIn,PressureMinIn,WindSpeedMaxMPH,WindSpeedAvgMPH,GustSpeedMaxMPH,PrecipitationSumIn
2013-5-1,49,35,25,32,22,8,97,65,22,0.00,40.00,21,9,38,0.01
2013-5-2,46,32,17,13,7,0,72,39,17,0.00,40.00,10,4,21,0.01
2013-5-3,57,40,23,13,7,1,53,29,12,0.00,40.00,8,4,21,0.00
2013-5-4,60,44,30,22,12,5,45,29,13,0.00,40.00,18,6,28,0.00
2013-5-5,55,44,36,27,19,12,48,37,23,0.00,40.00,19,8,32,0.00
2013-5-6,48,39,32,39,31,24,97,74,47,0.00,40.00,16,6,22,0.24
2013-5-7,47,36,30,39,33,29,97,89,55,0.00,40.00,11,5,18,0.15
2013-5-8,44,35,32,34,31,28,97,87,59,0.00,40.00,22,5,29,0.02
2013-5-9,46,37,30,36,29,24,97,75,44,0.00,40.00,27,7,38,0.11
2013-5-10,53,42,30,32,25,-100,85,57,31,0.00,40.00,15,4,26,0.04
2013-5-11,59,45,32,30,24,17,80,46,22,0.00,40.00,12,4,21,0.00
2013-5-12,64,50,33,33,27,22,84,45,25,0.00,40.00,9,4,17,0.00
2013-5-13,72,53,36,34,29,25,66,43,17,0.00,40.00,27,7,36,0.00
2013-5-14,71,52,39,37,33,28,68,50,20,0.00,40.00,20,5,29,0.00
2013-5-15,65,50,40,39,35,28,86,60,28,0.00,40.00,19,5,31,0.00
2013-5-16,67,49,37,41,17,-100,97,50,19,0.00,40.00,13,6,25,0.00
2013-5-17,66,54,43,26,10,-100,35,22,9,0.00,40.00,27,9,41,0.00
2013-5-18,56,44,32,36,20,9,93,44,23,0.00,40.00,16,6,38,0.03
2013-5-19,49,36,30,34,30,22,97,80,42,0.00,40.00,16,7,38,0.02
2013-5-20,52,38,26,34,28,24,97,73,36,0.00,40.00,12,6,22,0.01
2013-5-21,60,45,30,34,27,22,97,55,25,0.00,40.00,11,6,26,0.01
2013-5-22,69,52,37,31,22,13,64,36,16,0.00,40.00,16,6,43,0.00
2013-5-23,69,57,43,22,15,10,36,21,11,0.00,40.00,34,15,56,0.00
2013-5-24,68,58,46,18,11,3,23,16,8,0.00,40.00,27,10,45,0.00
2013-5-25,70,56,40,27,13,1,33,20,7,0.00,40.00,20,5,36,0.00
2013-5-26,71,57,42,22,16,9,33,21,13,0.00,40.00,12,5,28,0.00
2013-5-27,66,55,41,22,14,9,29,20,14,0.00,40.00,19,7,29,0.00
2013-5-28,62,53,42,25,15,9,32,23,14,0.00,40.00,25,8,34,0.00
2013-5-29,55,43,34,36,30,22,97,64,33,0.00,40.00,14,8,38,0.07
2013-5-30,56,46,34,26,21,14,70,40,19,0.00,40.00,27,15,45,0.01
2013-5-31,55,46,36,27,14,3,60,30,13,0.00,40.00,19,11,34,0.00